Time;durP1;ratioP1;P1;durP2;ratioP2;P2;SDS_P1;SDS_P2;PMS_P1;PMS_P2;Temp;Humidity;BMP_temperature;BMP_pressure;BME280_temperature;BME280_humidity;BME280_pressure;Samples;Min_cycle;Max_cycle;Signal;HPM_P1;HPM_P2
2023/03/09 00:01:30;;;;;;;1.67;0.90;;;9.70;62.60;;;;;;5035298;28;20039;-85
2023/03/09 00:03:57;;;;;;;1.23;0.90;;;9.70;62.50;;;;;;5022704;28;20045;-85
2023/03/09 00:06:23;;;;;;;0.75;0.55;;;9.70;62.30;;;;;;5026150;28;20033;-85
2023/03/09 00:08:50;;;;;;;1.90;0.98;;;9.70;62.30;;;;;;5020576;28;20059;-85
2023/03/09 00:11:17;;;;;;;0.88;0.82;;;9.70;62.20;;;;;;5007434;28;20032;-85
2023/03/09 00:13:45;;;;;;;1.15;0.80;;;9.70;62.20;;;;;;5010641;28;20033;-88
2023/03/09 00:16:24;;;;;;;1.80;0.73;;;9.70;62.30;;;;;;5042845;28;20030;-86
2023/03/09 00:18:52;;;;;;;1.00;0.80;;;9.70;62.40;;;;;;5034127;28;20101;-86
2023/03/09 00:21:34;;;;;;;0.90;0.90;;;9.70;62.50;;;;;;5034413;28;20029;-85
2023/03/09 00:24:08;;;;;;;0.95;0.65;;;9.70;62.60;;;;;;5033656;28;20028;-87
2023/03/09 00:26:38;;;;;;;1.00;0.75;;;9.70;62.70;;;;;;5034811;28;20026;-87
2023/03/09 00:29:05;;;;;;;2.72;1.30;;;9.60;62.50;;;;;;5008171;28;20036;-87
2023/03/09 00:31:32;;;;;;;1.75;0.70;;;9.60;62.50;;;;;;5009678;28;20473;-87
2023/03/09 00:33:58;;;;;;;1.20;1.10;;;9.70;62.40;;;;;;5026825;28;20043;-83
2023/03/09 00:36:24;;;;;;;1.75;0.75;;;9.70;62.30;;;;;;5040528;28;20056;-84
2023/03/09 00:38:51;;;;;;;0.80;0.80;;;9.70;62.20;;;;;;5027818;28;20083;-85
2023/03/09 00:41:18;;;;;;;1.20;0.90;;;9.70;62.10;;;;;;5031342;28;20037;-84
2023/03/09 00:43:44;;;;;;;1.08;0.75;;;9.70;62.00;;;;;;5044270;28;20081;-87
2023/03/09 00:46:11;;;;;;;1.15;0.90;;;9.70;62.00;;;;;;5032458;28;20465;-87
2023/03/09 00:48:38;;;;;;;1.77;1.10;;;9.70;62.10;;;;;;5014255;28;20442;-86
2023/03/09 00:51:04;;;;;;;0.77;0.77;;;9.60;62.00;;;;;;5011726;28;21634;-85
2023/03/09 00:53:30;;;;;;;1.25;0.95;;;9.70;62.00;;;;;;5028752;28;20048;-86
2023/03/09 00:56:01;;;;;;;1.05;0.90;;;9.60;61.90;;;;;;5043925;28;20045;-88
2023/03/09 00:58:27;;;;;;;1.25;1.13;;;9.70;62.10;;;;;;5030960;28;20068;-90
2023/03/09 01:00:53;;;;;;;1.02;0.95;;;9.60;62.00;;;;;;5045633;28;20069;-91
2023/03/09 01:03:19;;;;;;;1.27;1.00;;;9.60;61.90;;;;;;5022899;28;20029;-89
2023/03/09 01:05:45;;;;;;;1.05;0.73;;;9.60;61.90;;;;;;5043153;28;20036;-91
2023/03/09 01:08:10;;;;;;;1.00;0.70;;;9.60;61.80;;;;;;5048222;28;20037;-85
2023/03/09 01:10:40;;;;;;;1.20;0.80;;;9.60;61.70;;;;;;5055483;28;20095;-84
2023/03/09 01:13:07;;;;;;;1.20;1.00;;;9.60;61.70;;;;;;5047619;28;20446;-83
2023/03/09 01:15:33;;;;;;;0.95;0.85;;;9.60;61.70;;;;;;5021355;28;20025;-83
2023/03/09 01:17:59;;;;;;;0.93;0.80;;;9.60;61.70;;;;;;5038694;28;20021;-83
2023/03/09 01:20:25;;;;;;;1.10;1.00;;;9.60;61.70;;;;;;5042449;28;20039;-83
2023/03/09 01:22:51;;;;;;;1.50;0.80;;;9.60;61.60;;;;;;5043808;28;20064;-82
2023/03/09 01:25:17;;;;;;;1.55;1.13;;;9.60;61.60;;;;;;5042126;28;20049;-82
2023/03/09 01:27:43;;;;;;;1.02;0.90;;;9.60;61.60;;;;;;5030881;28;20056;-81
2023/03/09 01:30:11;;;;;;;0.93;0.65;;;9.60;61.70;;;;;;5037464;28;20666;-81
2023/03/09 01:32:37;;;;;;;1.25;1.10;;;9.60;61.70;;;;;;5040111;28;20946;-82
2023/03/09 01:35:04;;;;;;;1.20;0.65;;;9.60;61.80;;;;;;5026313;28;20044;-82
2023/03/09 01:37:32;;;;;;;1.10;1.00;;;9.60;61.90;;;;;;5040086;28;20127;-82
2023/03/09 01:39:58;;;;;;;0.90;0.85;;;9.60;62.50;;;;;;5019794;28;20072;-83
2023/03/09 01:42:24;;;;;;;1.52;1.10;;;9.60;61.70;;;;;;5025058;28;20106;-83
2023/03/09 01:45:18;;;;;;;0.75;0.70;;;9.60;61.60;;;;;;5045511;28;20812;-83
2023/03/09 01:47:45;;;;;;;1.15;0.90;;;9.60;61.60;;;;;;5045826;28;20024;-80
2023/03/09 01:50:16;;;;;;;0.70;0.63;;;9.60;61.40;;;;;;5041769;28;20028;-82
2023/03/09 01:52:47;;;;;;;0.98;0.80;;;9.50;61.30;;;;;;5046233;28;20060;-82
2023/03/09 01:55:18;;;;;;;0.98;0.90;;;9.50;61.20;;;;;;5039331;28;20040;-83
2023/03/09 01:57:59;;;;;;;0.90;0.70;;;9.50;61.20;;;;;;5032787;28;20052;-84
2023/03/09 02:00:26;;;;;;;1.75;1.00;;;9.60;61.10;;;;;;5045324;28;20400;-82
2023/03/09 02:03:06;;;;;;;1.05;0.95;;;9.50;61.00;;;;;;5045811;28;20032;-81
2023/03/09 02:05:44;;;;;;;1.10;1.00;;;9.50;60.90;;;;;;5041472;28;20029;-82
2023/03/09 02:08:12;;;;;;;0.73;0.70;;;9.50;60.90;;;;;;5039283;28;20052;-82
2023/03/09 02:10:46;;;;;;;1.25;0.77;;;9.50;61.10;;;;;;5042943;28;20048;-83
2023/03/09 02:13:19;;;;;;;0.90;0.90;;;9.50;61.10;;;;;;5008988;28;20030;-85
2023/03/09 02:15:45;;;;;;;3.17;1.30;;;9.50;61.10;;;;;;5023808;28;20041;-84
2023/03/09 02:18:12;;;;;;;1.60;0.95;;;9.50;60.90;;;;;;5043905;28;20753;-84
2023/03/09 02:20:59;;;;;;;1.00;0.90;;;9.50;60.80;;;;;;5026609;28;20504;-84
2023/03/09 02:23:46;;;;;;;1.25;1.10;;;9.50;60.80;;;;;;5020339;28;20535;-83
2023/03/09 02:26:18;;;;;;;;;;;9.50;60.70;;;;;;5031652;28;20427;-84
2023/03/09 02:28:44;;;;;;;1.77;0.98;;;9.50;60.50;;;;;;5039507;28;19917;-84
2023/03/09 02:31:12;;;;;;;0.80;0.80;;;9.50;61.10;;;;;;5039687;28;20041;-82
2023/03/09 02:33:38;;;;;;;1.83;1.10;;;9.50;60.50;;;;;;5051208;28;20036;-82
2023/03/09 02:36:05;;;;;;;1.75;0.90;;;9.50;60.50;;;;;;5041687;28;20499;-85
2023/03/09 02:38:36;;;;;;;1.63;0.95;;;9.40;60.50;;;;;;5019245;28;20080;-82
2023/03/09 02:41:07;;;;;;;0.98;0.80;;;9.50;60.60;;;;;;5038760;28;20041;-84
2023/03/09 02:43:47;;;;;;;1.88;0.98;;;9.50;60.60;;;;;;5020917;28;20033;-85
2023/03/09 02:46:14;;;;;;;1.15;0.88;;;9.50;60.70;;;;;;5041857;28;20029;-82
2023/03/09 02:48:41;;;;;;;0.70;0.70;;;9.40;60.80;;;;;;5011026;28;20221;-84
2023/03/09 02:51:07;;;;;;;1.00;0.82;;;9.40;60.70;;;;;;5040937;28;20045;-82
2023/03/09 02:53:34;;;;;;;0.70;0.70;;;9.40;60.70;;;;;;5036888;28;20056;-83
2023/03/09 02:56:00;;;;;;;1.90;0.65;;;9.40;60.60;;;;;;5040871;28;20045;-83
2023/03/09 02:58:26;;;;;;;0.88;0.80;;;9.40;60.60;;;;;;5038195;28;20037;-83
2023/03/09 03:00:52;;;;;;;0.63;0.63;;;9.40;60.50;;;;;;5037843;28;20033;-85
2023/03/09 03:03:20;;;;;;;0.98;0.80;;;9.40;60.40;;;;;;5034929;28;20033;-84
2023/03/09 03:05:47;;;;;;;2.45;1.05;;;9.40;60.30;;;;;;5021191;28;20087;-85
2023/03/09 03:08:14;;;;;;;1.15;0.73;;;9.40;60.30;;;;;;5036241;28;20104;-83
2023/03/09 03:10:41;;;;;;;1.67;0.90;;;9.40;60.80;;;;;;5035234;28;20037;-84
2023/03/09 03:13:09;;;;;;;3.08;1.05;;;9.40;60.10;;;;;;5024775;28;20044;-82
2023/03/09 03:15:36;;;;;;;1.20;0.90;;;9.30;60.00;;;;;;5023534;28;20412;-82
2023/03/09 03:18:02;;;;;;;2.40;0.90;;;9.30;60.00;;;;;;5027507;28;20037;-82
2023/03/09 03:20:28;;;;;;;2.05;0.90;;;9.40;60.70;;;;;;5036625;28;20039;-83
2023/03/09 03:22:55;;;;;;;0.63;0.52;;;9.40;60.20;;;;;;5043519;28;20037;-82
2023/03/09 03:25:27;;;;;;;1.35;0.90;;;9.30;60.20;;;;;;5029314;28;20104;-82
2023/03/09 03:27:58;;;;;;;1.00;0.90;;;9.30;60.10;;;;;;5023968;28;20041;-82
2023/03/09 03:30:24;;;;;;;1.42;0.73;;;9.30;60.00;;;;;;5043501;28;20041;-83
2023/03/09 03:32:53;;;;;;;1.75;0.95;;;9.30;60.00;;;;;;5040717;28;20127;-84
2023/03/09 03:35:22;;;;;;;1.20;0.80;;;9.30;59.90;;;;;;5011583;28;20370;-85
2023/03/09 03:37:49;;;;;;;1.30;0.70;;;9.30;59.80;;;;;;5027550;28;20037;-84
2023/03/09 03:40:16;;;;;;;1.98;0.80;;;9.30;59.80;;;;;;5009700;28;20183;-85
2023/03/09 03:42:45;;;;;;;0.90;0.80;;;9.30;59.70;;;;;;5010413;28;20112;-85
2023/03/09 03:45:13;;;;;;;1.42;0.90;;;9.30;59.60;;;;;;5023366;28;20037;-86
2023/03/09 03:47:40;;;;;;;1.40;0.60;;;9.30;59.60;;;;;;5005694;28;20435;-88
2023/03/09 03:50:06;;;;;;;1.63;0.80;;;9.20;59.50;;;;;;5046809;28;20430;-85
2023/03/09 03:52:38;;;;;;;0.80;0.80;;;9.20;59.50;;;;;;5015570;28;20032;-84
2023/03/09 03:55:04;;;;;;;0.85;0.85;;;9.20;59.70;;;;;;5011907;28;20423;-86
2023/03/09 03:57:32;;;;;;;1.10;0.80;;;9.20;59.70;;;;;;5027694;28;20435;-88
2023/03/09 03:59:58;;;;;;;1.23;0.60;;;9.20;59.70;;;;;;5031798;28;20029;-83
2023/03/09 04:02:24;;;;;;;2.88;0.88;;;9.20;59.80;;;;;;5030617;28;20597;-80
2023/03/09 04:04:50;;;;;;;1.42;0.55;;;9.20;59.80;;;;;;5040318;28;20029;-79
2023/03/09 04:07:16;;;;;;;1.77;0.70;;;9.20;59.70;;;;;;5046242;28;20093;-80
2023/03/09 04:09:43;;;;;;;0.65;0.60;;;9.20;59.70;;;;;;5057178;28;20152;-80
2023/03/09 04:12:10;;;;;;;1.17;0.85;;;9.20;59.50;;;;;;5029256;28;20119;-80
2023/03/09 04:14:39;;;;;;;1.63;0.82;;;9.20;59.40;;;;;;5030401;28;21039;-79
2023/03/09 04:17:06;;;;;;;1.58;0.80;;;9.20;59.30;;;;;;5040398;28;20082;-79
2023/03/09 04:19:32;;;;;;;0.90;0.73;;;9.20;59.20;;;;;;5044807;28;20040;-80
2023/03/09 04:21:58;;;;;;;1.20;0.63;;;9.10;59.10;;;;;;5041249;28;20024;-77
2023/03/09 04:24:24;;;;;;;0.98;0.80;;;9.10;58.90;;;;;;5056717;28;20407;-80
2023/03/09 04:26:50;;;;;;;2.60;0.88;;;9.10;58.90;;;;;;5043184;28;20029;-80
2023/03/09 04:29:22;;;;;;;1.02;0.60;;;9.10;58.80;;;;;;5046810;28;20508;-79
2023/03/09 04:31:50;;;;;;;1.80;0.63;;;9.10;58.80;;;;;;5045465;28;20071;-80
2023/03/09 04:34:16;;;;;;;0.70;0.63;;;9.10;58.80;;;;;;5044227;28;20460;-79
2023/03/09 04:36:43;;;;;;;0.90;0.70;;;9.10;58.80;;;;;;5038954;28;20041;-76
2023/03/09 04:39:10;;;;;;;0.60;0.60;;;9.10;58.70;;;;;;5041460;28;20155;-77
2023/03/09 04:41:36;;;;;;;1.33;0.90;;;9.10;58.60;;;;;;5040532;28;20795;-79
2023/03/09 04:44:05;;;;;;;1.42;0.90;;;9.10;58.60;;;;;;5039053;28;20122;-82
2023/03/09 04:46:31;;;;;;;1.52;0.93;;;9.00;58.50;;;;;;5005890;28;20037;-81
2023/03/09 04:49:01;;;;;;;6.85;1.00;;;9.00;58.50;;;;;;5026958;28;20056;-77
2023/03/09 04:51:29;;;;;;;1.05;0.70;;;9.10;58.60;;;;;;5008145;28;20526;-79
2023/03/09 04:53:56;;;;;;;2.00;0.85;;;9.10;58.80;;;;;;5038457;28;21429;-82
2023/03/09 04:56:25;;;;;;;2.55;1.10;;;9.00;59.20;;;;;;5018737;28;20033;-82
2023/03/09 04:58:57;;;;;;;1.83;1.00;;;9.00;60.00;;;;;;5039861;28;20067;-82
2023/03/09 05:01:25;;;;;;;1.25;0.90;;;9.00;60.10;;;;;;5025725;28;21383;-81
2023/03/09 05:03:53;;;;;;;2.08;1.00;;;9.00;60.30;;;;;;5025167;28;20047;-82
2023/03/09 05:06:19;;;;;;;1.85;1.10;;;9.00;60.40;;;;;;5021823;28;20080;-81
2023/03/09 05:08:45;;;;;;;2.83;1.00;;;9.00;60.50;;;;;;5019719;28;20051;-81
2023/03/09 05:11:12;;;;;;;2.35;1.00;;;9.00;60.50;;;;;;5010348;28;20033;-82
2023/03/09 05:13:40;;;;;;;1.45;0.98;;;9.00;60.50;;;;;;5034162;28;20088;-81
2023/03/09 05:16:11;;;;;;;3.83;1.13;;;9.00;60.50;;;;;;5011594;28;20029;-81
2023/03/09 05:18:42;;;;;;;3.42;0.90;;;9.00;60.30;;;;;;5011246;28;20038;-81
2023/03/09 05:21:08;;;;;;;1.80;1.17;;;9.00;60.20;;;;;;5025251;28;20037;-81
2023/03/09 05:23:36;;;;;;;2.15;1.00;;;9.00;60.10;;;;;;5023615;28;20040;-81
2023/03/09 05:26:06;;;;;;;4.28;1.10;;;9.00;60.00;;;;;;5022536;28;20041;-81
2023/03/09 05:28:38;;;;;;;3.92;1.10;;;9.00;59.80;;;;;;5026234;28;20061;-82
2023/03/09 05:31:09;;;;;;;1.73;1.02;;;9.00;59.70;;;;;;5026330;28;20528;-81
2023/03/09 05:33:35;;;;;;;1.30;1.00;;;9.00;59.50;;;;;;5026448;28;20060;-81
2023/03/09 05:36:02;;;;;;;2.17;1.40;;;9.00;59.40;;;;;;5036741;28;20496;-81
2023/03/09 05:38:29;;;;;;;1.50;1.10;;;9.00;59.20;;;;;;5026447;28;20033;-81
2023/03/09 05:40:55;;;;;;;1.60;0.90;;;9.00;59.10;;;;;;5013657;28;20036;-81
2023/03/09 05:43:22;;;;;;;1.40;1.00;;;9.00;58.90;;;;;;5030075;28;20132;-77
2023/03/09 05:45:55;;;;;;;2.75;1.15;;;9.00;58.80;;;;;;5044781;28;20123;-77
2023/03/09 05:48:21;;;;;;;1.90;1.17;;;9.00;58.60;;;;;;5044390;28;20451;-78
2023/03/09 05:50:48;;;;;;;1.27;0.85;;;9.00;58.70;;;;;;5029769;28;20128;-85
2023/03/09 05:53:14;;;;;;;1.63;1.17;;;9.10;58.80;;;;;;5017136;28;20073;-75
2023/03/09 05:55:41;;;;;;;2.90;1.00;;;9.10;59.90;;;;;;5029202;28;20124;-71
2023/03/09 05:58:09;;;;;;;1.92;0.93;;;9.10;60.60;;;;;;5055828;28;20082;-71
2023/03/09 06:00:35;;;;;;;1.38;0.98;;;9.20;60.80;;;;;;5044503;28;20028;-72
2023/03/09 06:03:05;;;;;;;1.20;1.05;;;9.30;61.80;;;;;;5045004;28;20036;-72
2023/03/09 06:05:43;;;;;;;1.17;0.73;;;9.30;60.10;;;;;;5043038;28;20120;-72
2023/03/09 06:08:09;;;;;;;2.85;0.98;;;9.40;60.10;;;;;;5050212;28;20132;-72
2023/03/09 06:10:36;;;;;;;3.05;1.20;;;9.50;61.20;;;;;;5033146;28;20036;-72
2023/03/09 06:13:03;;;;;;;2.00;0.90;;;9.60;59.20;;;;;;5028983;28;20033;-72
2023/03/09 06:15:30;;;;;;;3.45;1.35;;;9.70;58.90;;;;;;5046481;28;20060;-72
2023/03/09 06:17:56;;;;;;;1.75;1.10;;;9.80;58.30;;;;;;5032849;28;20771;-72
2023/03/09 06:20:26;;;;;;;2.15;0.90;;;9.80;58.40;;;;;;5045665;28;20041;-72
2023/03/09 06:22:57;;;;;;;1.38;0.98;;;9.90;58.00;;;;;;5032529;28;20044;-72
2023/03/09 06:25:23;;;;;;;2.35;1.13;;;10.00;57.50;;;;;;5041959;28;20036;-72
2023/03/09 06:27:49;;;;;;;2.08;1.50;;;10.10;57.10;;;;;;5044454;28;20037;-72
2023/03/09 06:30:18;;;;;;;1.35;1.10;;;10.10;57.00;;;;;;5047452;28;20044;-72
2023/03/09 06:32:44;;;;;;;2.33;1.08;;;10.20;56.60;;;;;;5059197;28;20071;-79
2023/03/09 06:35:10;;;;;;;1.48;0.80;;;10.30;57.50;;;;;;5061219;28;20040;-79
2023/03/09 06:37:38;;;;;;;0.80;0.80;;;10.30;56.30;;;;;;5047723;28;20086;-79
2023/03/09 06:40:05;;;;;;;1.38;0.60;;;10.40;55.70;;;;;;5032440;28;20041;-79
2023/03/09 06:42:31;;;;;;;2.83;1.00;;;10.40;55.20;;;;;;5043710;28;20039;-79
2023/03/09 06:44:57;;;;;;;2.70;0.90;;;10.40;54.80;;;;;;5031613;28;20468;-79
2023/03/09 06:47:27;;;;;;;2.15;1.05;;;10.40;54.40;;;;;;5048128;28;20054;-79
2023/03/09 06:49:59;;;;;;;1.15;0.80;;;10.50;54.10;;;;;;5031730;28;20044;-78
2023/03/09 06:52:27;;;;;;;1.60;0.93;;;10.50;53.80;;;;;;5041716;28;20035;-78
2023/03/09 06:54:54;;;;;;;0.80;0.70;;;10.50;53.70;;;;;;5045373;28;20029;-78
2023/03/09 06:57:21;;;;;;;2.17;1.00;;;10.50;53.50;;;;;;5031790;28;20116;-78
2023/03/09 06:59:47;;;;;;;1.63;0.98;;;10.50;53.30;;;;;;5046278;28;20452;-79
2023/03/09 07:02:14;;;;;;;0.75;0.75;;;10.60;53.20;;;;;;5058994;28;20460;-79
2023/03/09 07:04:41;;;;;;;3.13;1.60;;;10.60;52.80;;;;;;5045636;28;20098;-79
2023/03/09 07:07:08;;;;;;;2.40;1.63;;;10.60;52.80;;;;;;5041110;28;20523;-79
2023/03/09 07:09:34;;;;;;;2.33;1.50;;;10.60;52.60;;;;;;5057859;28;20437;-79
2023/03/09 07:12:00;;;;;;;3.33;1.13;;;10.60;52.30;;;;;;5057187;28;21071;-78
2023/03/09 07:14:27;;;;;;;1.80;1.30;;;10.60;52.40;;;;;;5032281;28;20038;-79
2023/03/09 07:16:56;;;;;;;2.13;0.90;;;10.60;52.10;;;;;;5058221;28;20033;-79
2023/03/09 07:19:23;;;;;;;2.53;1.02;;;10.60;52.10;;;;;;5056496;28;20058;-79
2023/03/09 07:21:49;;;;;;;1.58;1.00;;;10.60;51.90;;;;;;5058826;28;20039;-79
2023/03/09 07:24:16;;;;;;;3.55;1.30;;;10.60;51.60;;;;;;5058151;28;20033;-81
2023/03/09 07:26:42;;;;;;;2.15;1.00;;;10.60;51.60;;;;;;5041669;28;20029;-80
2023/03/09 07:29:08;;;;;;;1.83;0.98;;;10.60;51.70;;;;;;5025231;28;20035;-80
2023/03/09 07:31:34;;;;;;;2.38;0.90;;;10.60;51.40;;;;;;5040353;28;20037;-78
2023/03/09 07:34:00;;;;;;;1.38;0.95;;;10.60;51.40;;;;;;5031093;28;20094;-79
2023/03/09 07:36:26;;;;;;;1.30;1.13;;;10.60;51.60;;;;;;5058312;28;20036;-79
2023/03/09 07:38:52;;;;;;;1.35;0.90;;;10.70;51.70;;;;;;5039635;28;20043;-78
2023/03/09 07:41:19;;;;;;;1.40;0.90;;;10.60;51.60;;;;;;5056486;28;20033;-78
2023/03/09 07:43:45;;;;;;;1.75;0.73;;;10.70;51.30;;;;;;5057797;28;20841;-79
2023/03/09 07:46:29;;;;;;;1.33;1.08;;;10.70;51.40;;;;;;5043981;28;20025;-80
2023/03/09 07:48:55;;;;;;;3.33;0.80;;;10.70;51.30;;;;;;5037697;28;20035;-79
2023/03/09 07:51:21;;;;;;;1.65;0.80;;;10.70;50.80;;;;;;5039940;28;20136;-78
2023/03/09 07:53:47;;;;;;;1.20;0.80;;;10.70;50.70;;;;;;5023571;28;20082;-75
2023/03/09 07:56:13;;;;;;;2.85;0.80;;;10.80;51.30;;;;;;5037944;28;20498;-76
2023/03/09 07:58:40;;;;;;;0.70;0.70;;;10.80;55.00;;;;;;5036369;28;20040;-76
2023/03/09 08:01:16;;;;;;;3.70;0.80;;;10.90;56.10;;;;;;5041538;28;20095;-76
2023/03/09 08:03:45;;;;;;;0.90;0.50;;;11.00;55.90;;;;;;5027952;28;20033;-79
2023/03/09 08:06:12;;;;;;;2.33;0.80;;;11.20;57.70;;;;;;5036709;28;20119;-79
2023/03/09 08:08:39;;;;;;;1.38;0.80;;;11.30;54.00;;;;;;5037229;28;20084;-77
2023/03/09 08:11:05;;;;;;;1.17;0.90;;;11.30;52.50;;;;;;5036964;28;20662;-78
2023/03/09 08:13:32;;;;;;;1.08;0.60;;;11.30;51.70;;;;;;5037864;28;20033;-77
2023/03/09 08:16:05;;;;;;;1.70;0.70;;;11.30;51.00;;;;;;5034874;28;20132;-77
2023/03/09 08:18:31;;;;;;;0.75;0.65;;;11.30;50.40;;;;;;5040660;28;20095;-78
2023/03/09 08:21:06;;;;;;;1.30;0.82;;;11.30;49.60;;;;;;5034522;28;20152;-78
2023/03/09 08:23:37;;;;;;;1.00;0.88;;;11.30;49.50;;;;;;5036733;28;20040;-79
2023/03/09 08:26:03;;;;;;;1.00;0.60;;;11.30;49.10;;;;;;5035584;28;20033;-77
2023/03/09 08:28:30;;;;;;;1.20;0.90;;;11.30;48.80;;;;;;5035897;28;20041;-78
2023/03/09 08:30:56;;;;;;;1.83;0.80;;;11.20;48.70;;;;;;5037045;28;20706;-77
2023/03/09 08:33:22;;;;;;;1.23;0.70;;;11.20;49.00;;;;;;5040258;28;20040;-77
2023/03/09 08:35:48;;;;;;;1.17;0.73;;;11.20;48.40;;;;;;5036444;28;20396;-78
2023/03/09 08:38:14;;;;;;;0.63;0.52;;;11.20;48.10;;;;;;5041995;28;20035;-77
2023/03/09 08:40:41;;;;;;;1.23;0.77;;;11.20;48.30;;;;;;5041067;28;20508;-78
2023/03/09 08:43:07;;;;;;;2.50;1.40;;;11.20;48.30;;;;;;5020325;28;20025;-79
2023/03/09 08:45:33;;;;;;;2.33;0.90;;;11.20;48.10;;;;;;5020707;28;20082;-80
2023/03/09 08:47:59;;;;;;;1.80;0.80;;;11.20;48.10;;;;;;5034473;28;20036;-78
2023/03/09 08:50:25;;;;;;;1.23;0.60;;;11.20;48.10;;;;;;5044674;28;20070;-78
2023/03/09 08:52:51;;;;;;;0.65;0.60;;;11.20;47.90;;;;;;5051565;28;20029;-78
2023/03/09 08:55:17;;;;;;;2.92;0.93;;;11.10;47.80;;;;;;5036326;28;20033;-78
2023/03/09 08:57:43;;;;;;;1.52;0.93;;;11.10;47.80;;;;;;5041324;28;20120;-78
2023/03/09 09:00:10;;;;;;;1.27;0.77;;;11.10;47.70;;;;;;5036389;28;20120;-78
2023/03/09 09:02:37;;;;;;;0.85;0.80;;;11.10;47.50;;;;;;5046594;28;20128;-80
2023/03/09 09:05:04;;;;;;;2.38;0.82;;;11.10;47.90;;;;;;5036197;28;20057;-78
2023/03/09 09:07:30;;;;;;;2.45;1.13;;;11.10;52.00;;;;;;5036321;28;20041;-74
2023/03/09 09:09:58;;;;;;;1.10;0.93;;;11.20;50.60;;;;;;5036455;28;20040;-75
2023/03/09 09:12:25;;;;;;;1.98;0.77;;;11.20;48.80;;;;;;5050675;28;20076;-74
2023/03/09 09:18:01;;;;;;;4.50;1.13;;;11.10;46.90;;;;;;4999949;28;20048;-82
2023/03/09 09:20:43;;;;;;;4.22;1.52;;;11.00;44.90;;;;;;5024739;28;20024;-79
2023/03/09 09:23:09;;;;;;;1.95;0.70;;;10.90;66.60;;;;;;5010461;28;20044;-79
2023/03/09 09:25:35;;;;;;;3.17;0.95;;;10.90;61.80;;;;;;5034213;28;20665;-79
2023/03/09 09:28:01;;;;;;;2.35;0.60;;;10.90;60.20;;;;;;5046737;28;20041;-79
2023/03/09 09:30:27;;;;;;;3.67;0.90;;;11.00;59.70;;;;;;5043812;28;20261;-79
2023/03/09 09:32:53;;;;;;;2.88;1.25;;;11.00;59.80;;;;;;5042524;28;20037;-79
2023/03/09 09:35:19;;;;;;;1.45;0.80;;;11.00;60.20;;;;;;5057866;28;20388;-79
2023/03/09 09:37:44;;;;;;;1.48;0.88;;;11.10;59.70;;;;;;5055756;28;20060;-79
2023/03/09 09:40:13;;;;;;;0.95;0.80;;;11.10;59.90;;;;;;5048063;28;20048;-79
2023/03/09 09:42:43;;;;;;;1.48;0.82;;;11.20;59.20;;;;;;5059451;28;20068;-79
2023/03/09 09:45:34;;;;;;;3.60;0.70;;;11.10;58.30;;;;;;5031522;28;20037;-79
2023/03/09 09:48:04;;;;;;;0.93;0.65;;;11.20;57.90;;;;;;5058900;28;20487;-79
2023/03/09 09:50:57;;;;;;;1.35;0.60;;;11.20;58.10;;;;;;5059860;28;20036;-79
2023/03/09 09:53:50;;;;;;;0.90;0.52;;;11.20;58.10;;;;;;4969766;28;20042;-79
2023/03/09 09:56:21;;;;;;;0.90;0.60;;;11.20;54.00;;;;;;4957563;28;20097;-79
2023/03/09 09:58:53;;;;;;;1.65;0.68;;;11.30;61.60;;;;;;4958086;28;20055;-79
2023/03/09 10:01:19;;;;;;;1.55;0.60;;;11.30;62.90;;;;;;4973004;28;20245;-79
2023/03/09 10:03:49;;;;;;;1.40;0.75;;;11.40;65.50;;;;;;4973661;28;20651;-79
2023/03/09 10:06:19;;;;;;;1.77;0.55;;;11.40;51.80;;;;;;4926278;28;20032;-79
2023/03/09 10:08:50;;;;;;;1.23;0.60;;;11.30;51.80;;;;;;4942281;28;20035;-79
2023/03/09 10:11:31;;;;;;;1.48;0.50;;;11.40;51.70;;;;;;4953336;28;20051;-79
2023/03/09 10:14:03;;;;;;;1.20;0.80;;;11.40;51.60;;;;;;4977201;28;20110;-79
2023/03/09 10:16:36;;;;;;;0.50;0.50;;;11.40;51.80;;;;;;4976556;28;20135;-79
2023/03/09 10:19:07;;;;;;;1.75;0.60;;;11.50;51.90;;;;;;4944008;28;20037;-79
2023/03/09 10:21:41;;;;;;;1.45;0.60;;;11.40;52.10;;;;;;4976579;28;20062;-79
2023/03/09 10:24:26;;;;;;;0.80;0.50;;;11.50;52.20;;;;;;4977081;28;20030;-79
2023/03/09 10:27:07;;;;;;;1.65;0.45;;;11.50;52.10;;;;;;4976742;28;20034;-79
2023/03/09 10:29:53;;;;;;;2.30;0.85;;;11.60;59.10;;;;;;4986098;28;20083;-79
2023/03/09 10:32:23;;;;;;;0.68;0.45;;;11.50;52.10;;;;;;5059517;28;20040;-79
2023/03/09 10:35:27;;;;;;;0.60;0.50;;;11.50;51.90;;;;;;5059507;28;20071;-79
2023/03/09 10:37:53;;;;;;;0.95;0.40;;;11.50;51.90;;;;;;5042700;28;20033;-79
2023/03/09 10:40:34;;;;;;;0.45;0.32;;;11.60;52.00;;;;;;5058395;28;20132;-79
2023/03/09 10:43:01;;;;;;;1.13;0.52;;;11.50;52.10;;;;;;5032197;28;20073;-79
2023/03/09 10:45:32;;;;;;;1.35;0.52;;;11.60;52.10;;;;;;5057983;28;20033;-79
2023/03/09 10:47:59;;;;;;;1.17;0.45;;;11.60;52.10;;;;;;5031546;28;21021;-78
2023/03/09 10:50:42;;;;;;;1.13;0.70;;;11.60;52.10;;;;;;5031634;28;20028;-78
2023/03/09 10:53:36;;;;;;;1.42;0.80;;;11.60;52.10;;;;;;5042132;28;20029;-79
2023/03/09 10:56:13;;;;;;;2.22;0.57;;;11.60;60.00;;;;;;5038302;28;20522;-79
2023/03/09 10:58:39;;;;;;;1.27;0.73;;;11.60;52.10;;;;;;5030643;28;20033;-79
2023/03/09 11:01:22;;;;;;;0.77;0.70;;;11.60;52.30;;;;;;5013510;28;20036;-79
2023/03/09 11:03:49;;;;;;;1.17;0.68;;;11.60;52.40;;;;;;5047833;28;20392;-79
2023/03/09 11:06:26;;;;;;;0.77;0.70;;;11.60;52.30;;;;;;5030989;28;20052;-79
2023/03/09 11:09:14;;;;;;;1.73;0.52;;;11.60;52.50;;;;;;5057512;28;20024;-79
2023/03/09 11:11:42;;;;;;;1.55;0.52;;;11.70;52.50;;;;;;5044986;28;20029;-79
2023/03/09 11:14:22;;;;;;;0.70;0.70;;;11.60;52.40;;;;;;5041164;28;20037;-79
2023/03/09 11:16:51;;;;;;;1.33;0.60;;;11.60;52.50;;;;;;5057608;28;20460;-79
2023/03/09 11:19:18;;;;;;;1.30;0.60;;;11.70;52.70;;;;;;5032396;28;20147;-79
2023/03/09 11:21:56;;;;;;;1.00;0.50;;;11.70;52.70;;;;;;5028392;28;20029;-79
2023/03/09 11:24:44;;;;;;;0.50;0.50;;;11.70;52.80;;;;;;5014553;28;20037;-79
2023/03/09 11:27:25;;;;;;;1.70;0.60;;;11.60;52.80;;;;;;5031449;28;20042;-79
2023/03/09 11:29:59;;;;;;;0.65;0.55;;;11.70;52.90;;;;;;5027550;28;20028;-79
2023/03/09 11:32:25;;;;;;;0.57;0.55;;;11.70;53.00;;;;;;5015160;28;20024;-79
2023/03/09 11:34:52;;;;;;;1.80;0.80;;;11.70;60.50;;;;;;5028017;28;20243;-79
2023/03/09 11:37:57;;;;;;;1.67;0.70;;;11.70;59.80;;;;;;5046896;28;21453;-79
2023/03/09 11:40:28;;;;;;;1.77;0.63;;;11.70;59.50;;;;;;4970748;28;20046;-79
2023/03/09 11:43:07;;;;;;;1.17;0.70;;;11.70;63.80;;;;;;4987570;28;20649;-79
2023/03/09 11:45:41;;;;;;;1.67;0.57;;;11.60;64.60;;;;;;5004257;28;20062;-78
2023/03/09 11:48:24;;;;;;;3.20;0.98;;;12.00;64.70;;;;;;5003726;28;21603;-80
2023/03/09 11:58:54;;;;;;;1.75;0.75;;;11.80;64.50;;;;;;4917537;28;20139;-80
2023/03/09 12:02:50;;;;;;;;;;;;;;;;;;;;;
2023/03/09 12:06:28;;;;;;;;;;;;;;;;;;;;;
2023/03/09 12:10:15;;;;;;;1.83;0.70;;;11.80;64.30;;;;;;4879328;29;20071;-82
2023/03/09 12:13:47;;;;;;;1.55;0.80;;;11.70;63.60;;;;;;4887468;29;20039;-77
2023/03/09 12:16:21;;;;;;;1.33;1.00;;;11.80;63.80;;;;;;4868905;29;20119;-77
2023/03/09 12:19:10;;;;;;;3.25;0.88;;;11.80;63.40;;;;;;4916488;29;20032;-77
2023/03/09 12:21:40;;;;;;;1.88;1.00;;;11.70;62.90;;;;;;4916054;29;20185;-77
2023/03/09 12:24:26;;;;;;;1.10;0.88;;;11.80;63.20;;;;;;4917496;29;20091;-79
2023/03/09 12:27:03;;;;;;;1.58;1.00;;;11.70;63.00;;;;;;4916522;29;20910;-80
2023/03/09 12:29:51;;;;;;;1.92;1.10;;;11.80;62.90;;;;;;4901534;29;20031;-79
2023/03/09 12:32:23;;;;;;;2.15;1.02;;;11.70;60.10;;;;;;4915090;29;20107;-80
2023/03/09 12:34:55;;;;;;;2.95;0.90;;;11.70;63.70;;;;;;4979048;28;20039;-79
2023/03/09 12:37:30;;;;;;;1.42;0.90;;;11.80;63.90;;;;;;5043915;28;20029;-81
2023/03/09 12:40:25;;;;;;;1.58;0.95;;;11.70;63.70;;;;;;5041611;28;20507;-81
2023/03/09 12:43:14;;;;;;;1.60;1.00;;;11.70;60.60;;;;;;4952812;28;20373;-81
2023/03/09 12:45:43;;;;;;;1.33;0.80;;;11.70;59.50;;;;;;4978336;28;20137;-81
2023/03/09 12:48:12;;;;;;;2.08;1.00;;;11.80;64.20;;;;;;4984707;28;20117;-79
2023/03/09 12:50:45;;;;;;;1.58;0.95;;;11.70;63.20;;;;;;4988876;28;20102;-78
2023/03/09 12:53:14;;;;;;;2.85;0.95;;;11.70;63.80;;;;;;4971528;28;20038;-77
2023/03/09 12:55:40;;;;;;;1.63;1.00;;;11.70;63.90;;;;;;4956490;28;20041;-78
2023/03/09 12:58:18;;;;;;;1.33;1.00;;;11.70;64.40;;;;;;4989392;28;20034;-83
2023/03/09 13:01:05;;;;;;;1.40;0.82;;;11.70;63.20;;;;;;4957558;28;20037;-84
2023/03/09 13:03:50;;;;;;;1.60;1.15;;;11.60;63.30;;;;;;4938757;28;20126;-83
2023/03/09 13:06:40;;;;;;;2.13;1.15;;;11.60;56.40;;;;;;4978633;28;20506;-83
2023/03/09 13:09:17;;;;;;;2.15;1.20;;;11.60;62.60;;;;;;4987094;28;20147;-83
2023/03/09 13:11:56;;;;;;;1.02;0.90;;;11.60;62.40;;;;;;4973553;28;20033;-85
2023/03/09 13:14:24;;;;;;;1.48;0.77;;;11.60;56.50;;;;;;4989143;28;20112;-84
2023/03/09 13:17:00;;;;;;;1.10;0.80;;;11.60;63.20;;;;;;4975085;28;20096;-88
2023/03/09 13:19:26;;;;;;;6.75;1.15;;;11.60;63.50;;;;;;5004006;28;21241;-84
2023/03/09 13:22:00;;;;;;;4.53;1.48;;;11.60;60.40;;;;;;5052062;28;20480;-83
2023/03/09 13:24:35;;;;;;;2.40;0.93;;;11.60;58.20;;;;;;5046316;28;20029;-83
2023/03/09 13:27:08;;;;;;;1.80;1.00;;;11.60;57.90;;;;;;5042786;28;20167;-84